HAM weather

Aristos Mexico Heliport
Cuauhtémoc, Distrito Federal, Mexico

Public forecast

Using degrees Celsius for public forecast. Weather courtesy of forecast.io.

METAR (pilot weather report)

Closest report is Licenciado Benito Juarez International Airport, 5.2 nm (9.6 km) E. Retrieved 2019/08/21 16:46 UTC (28 minutes ago):

MMMX 211646Z 08005KT 6SM SKC 20/09 A3036 NOSIG RMK HZY CU ARND

TAF (pilot weather forecast)

Closest forecast is Licenciado Benito Juarez International Airport, 5.2 nm (9.6 km) E. Retrieved 2019/08/21 12:44 UTC (5 hours ago):

TAF MMMX 211037Z 2112/2218 02005KT P6SM SCT020 SCT080 SCT200 TX25/2121Z TN14/2112Z FM211800 08010KT P6SM SCT030 SCT200 TEMPO 2122/2202 4SM TSRA BKN020CB FM220200 13010KT 6SM -RA BKN020CB OVC100 TEMPO 2202/2206 5SM TSRA FM220700 06005KT 6SM HZ SCT020 BKN100 BKN200 FM221800 13010KT P6SM BKN030